»·PEaware :: SWA4342 KLAS-KSFO

SWA4342 :: KLAS-KSFO

FLIGHT INFORMATION

Flight Status: Arrived
Operator:
Southwest Airlines
More flights by this operator :: More flights under this callsign
Pilot: Cody B. (17747)
Aircraft: BOEING 737-800
(B738)
More flights by this aircraft type
Origin: KLAS McCarran Intl
United States
Destination: KSFO San Francisco Intl
United States
More flights between these airports :: More routes between these airports
Route: SHEAD1 KENNO RUSME DYAMD4
File this flight plan on PilotEdge
Remarks: PBN / A1B1C1D1S1S2 DOF / 181001 REG / N8301J EET / KZOA0023 CODE / AB5ADE OPR / SWA PER / C RMK / TCAS SIMBRIEF
Altitude:
(Current/Filed)
38,000ft
Speed:
(Current/Filed)
457kts
Departed: 01-Oct-18 02:08 PM
Arrived: 01-Oct-18 03:21 PM
Distance/Time
Traveled:
359nm/1:13
Distance/Time
To Go:
Arrived

Flight Plot

Page will automatically refresh every two minutes.

Flight plan parsing failed; only flown route is shown


Map Options




Map Legend


Flown Route
Filed Route
Departure Airport
Arrival Airport
Navaid (VOR, NDB)
Fix

Horizontal Profiles

Position Reports

Time Latitude Longitude Heading Altitude Ground
Speed
01-Oct-18 13:16 36.082307 -115.150718 345 2189ft 0kts
01-Oct-18 13:17 36.082307 -115.150718 345 2189ft 0kts
01-Oct-18 13:18 36.082307 -115.150718 345 2189ft 0kts
01-Oct-18 13:19 36.082307 -115.150718 345 2189ft 0kts
01-Oct-18 13:20 36.082307 -115.150718 345 2189ft 0kts
01-Oct-18 13:21 36.082307 -115.150718 345 2189ft 0kts
01-Oct-18 13:22 36.082307 -115.150718 345 2189ft 0kts
01-Oct-18 13:23 36.082307 -115.150718 345 2189ft 0kts
01-Oct-18 13:24 36.082307 -115.150718 345 2189ft 0kts
01-Oct-18 13:25 36.082307 -115.150718 345 2189ft 0kts
01-Oct-18 13:26 36.082307 -115.150718 345 2189ft 0kts
01-Oct-18 13:27 36.082307 -115.150718 345 2189ft 0kts
01-Oct-18 13:28 36.082307 -115.150718 345 2189ft 0kts
01-Oct-18 13:29 36.082307 -115.150718 345 2189ft 0kts
01-Oct-18 13:30 36.082307 -115.150718 345 2189ft 0kts
01-Oct-18 13:31 36.082307 -115.150718 345 2189ft 0kts
01-Oct-18 13:32 36.082307 -115.150718 345 2189ft 0kts
01-Oct-18 13:33 36.082307 -115.150718 345 2189ft 0kts
01-Oct-18 13:34 36.082307 -115.150718 345 2189ft 0kts
01-Oct-18 13:35 36.082307 -115.150718 345 2189ft 0kts
01-Oct-18 13:36 36.082307 -115.150718 345 2189ft 0kts
01-Oct-18 13:37 36.082307 -115.150718 345 2189ft 0kts
01-Oct-18 13:38 36.082307 -115.150718 345 2189ft 0kts
01-Oct-18 13:39 36.082307 -115.150718 345 2189ft 0kts
01-Oct-18 13:40 36.082307 -115.150718 345 2189ft 0kts
01-Oct-18 13:41 36.082307 -115.150718 345 2189ft 0kts
01-Oct-18 13:42 36.082307 -115.150718 345 2189ft 0kts
01-Oct-18 13:43 36.082307 -115.150718 345 2189ft 0kts
01-Oct-18 13:44 36.082307 -115.150718 345 2189ft 0kts
01-Oct-18 13:45 36.082307 -115.150718 345 2189ft 0kts
01-Oct-18 13:46 36.082307 -115.150718 345 2189ft 0kts
01-Oct-18 13:47 36.082307 -115.150718 345 2189ft 0kts
01-Oct-18 13:48 36.082307 -115.150718 345 2189ft 0kts
01-Oct-18 13:49 36.082307 -115.150718 345 2189ft 0kts
01-Oct-18 13:50 36.082307 -115.150718 345 2189ft 0kts
01-Oct-18 13:51 36.082307 -115.150718 345 2189ft 0kts
01-Oct-18 13:52 36.082307 -115.150718 345 2189ft 0kts
01-Oct-18 13:53 36.082066 -115.150643 345 2189ft 0kts
01-Oct-18 13:54 36.081909 -115.150103 229 2189ft 0kts
01-Oct-18 13:55 36.081963 -115.150039 224 2189ft 0kts
01-Oct-18 13:56 36.081963 -115.150039 224 2189ft 0kts
01-Oct-18 13:57 36.081108 -115.151190 235 2189ft 8kts
01-Oct-18 13:58 36.081077 -115.152991 282 2189ft 0kts
01-Oct-18 13:59 36.081077 -115.152991 282 2189ft 0kts
01-Oct-18 14:00 36.081181 -115.153526 284 2189ft 3kts
01-Oct-18 14:01 36.082055 -115.155224 333 2189ft 8kts
01-Oct-18 14:02 36.085002 -115.156926 335 2189ft 15kts
01-Oct-18 14:03 36.087904 -115.157363 30 2189ft 13kts
01-Oct-18 14:04 36.092525 -115.154796 24 2189ft 19kts
01-Oct-18 14:05 36.096432 -115.152567 24 2189ft 13kts
01-Oct-18 14:06 36.097996 -115.152502 298 2189ft 0kts
01-Oct-18 14:07 36.097996 -115.152502 298 2189ft 0kts
01-Oct-18 14:08 36.098005 -115.152522 297 2189ft 0kts
01-Oct-18 14:09 36.097593 -115.154084 217 2189ft 12kts
01-Oct-18 14:10 36.088757 -115.159174 204 2189ft 108kts
01-Oct-18 14:11 36.052690 -115.180874 201 3349ft 161kts
01-Oct-18 14:12 36.007526 -115.211837 227 4781ft 226kts
01-Oct-18 14:13 35.975849 -115.290961 238 6604ft 287kts
01-Oct-18 14:14 35.922041 -115.361800 221 8585ft 284kts
01-Oct-18 14:15 35.886849 -115.449928 267 10637ft 322kts
01-Oct-18 14:16 35.888644 -115.561631 269 11004ft 327kts
01-Oct-18 14:17 35.890736 -115.668056 269 11129ft 336kts
01-Oct-18 14:18 35.893000 -115.799755 268 14430ft 342kts
01-Oct-18 14:19 35.894597 -115.897889 267 16642ft 351kts
01-Oct-18 14:20 35.932303 -116.010782 309 18011ft 371kts
01-Oct-18 14:21 36.008235 -116.100268 313 20016ft 384kts
01-Oct-18 14:22 36.087271 -116.191445 313 21903ft 394kts
01-Oct-18 14:23 36.166293 -116.282859 313 22872ft 401kts
01-Oct-18 14:24 36.247850 -116.377484 312 23819ft 406kts
01-Oct-18 14:25 36.330468 -116.473635 312 24890ft 412kts
01-Oct-18 14:26 36.413765 -116.570823 312 26184ft 410kts
01-Oct-18 14:27 36.495277 -116.666221 311 27641ft 412kts
01-Oct-18 14:28 36.579975 -116.760241 321 29133ft 418kts
01-Oct-18 14:29 36.678894 -116.835359 322 30636ft 416kts
01-Oct-18 14:30 36.776712 -116.909597 322 32132ft 409kts
01-Oct-18 14:31 36.872666 -116.982719 321 33626ft 399kts
01-Oct-18 14:32 36.965437 -117.053646 321 35103ft 386kts
01-Oct-18 14:33 37.054848 -117.122198 319 36584ft 371kts
01-Oct-18 14:34 37.139199 -117.187124 318 37792ft 357kts
01-Oct-18 14:35 37.223748 -117.252614 318 38079ft 368kts
01-Oct-18 14:36 37.311637 -117.323030 311 38089ft 375kts
01-Oct-18 14:37 37.391477 -117.409937 310 38068ft 388kts
01-Oct-18 14:38 37.467910 -117.504960 294 38029ft 383kts
01-Oct-18 14:39 37.502785 -117.626857 270 38019ft 369kts
01-Oct-18 14:40 37.513195 -117.751212 269 37992ft 379kts
01-Oct-18 14:41 37.523945 -117.884679 269 37968ft 389kts
01-Oct-18 14:42 37.534792 -118.020621 269 37961ft 397kts
01-Oct-18 14:43 37.545733 -118.159598 269 37966ft 404kts
01-Oct-18 14:44 37.556709 -118.300989 269 37961ft 406kts
01-Oct-18 14:45 37.567543 -118.442593 269 38019ft 406kts
01-Oct-18 14:46 37.578151 -118.583424 269 38107ft 406kts
01-Oct-18 14:47 37.587979 -118.716463 269 38134ft 406kts
01-Oct-18 14:48 37.598102 -118.856497 269 38139ft 405kts
01-Oct-18 14:49 37.607877 -118.993603 268 38138ft 405kts
01-Oct-18 14:50 37.617764 -119.134377 268 38137ft 404kts
01-Oct-18 14:51 37.627486 -119.275117 268 38136ft 404kts
01-Oct-18 14:52 37.637077 -119.416057 268 38135ft 404kts
01-Oct-18 14:53 37.646464 -119.556980 268 38117ft 405kts
01-Oct-18 14:54 37.656759 -119.714271 268 37949ft 392kts
01-Oct-18 14:55 37.663893 -119.826039 267 37473ft 383kts
01-Oct-18 14:56 37.672208 -119.958466 267 36333ft 382kts
01-Oct-18 14:57 37.680440 -120.091430 267 34863ft 383kts
01-Oct-18 14:58 37.688586 -120.225799 267 33113ft 394kts
01-Oct-18 14:59 37.696833 -120.363924 267 30009ft 404kts
01-Oct-18 15:00 37.688323 -120.501378 255 27353ft 376kts
01-Oct-18 15:01 37.672708 -120.630979 256 25138ft 383kts
01-Oct-18 15:02 37.658757 -120.750519 255 23055ft 375kts
01-Oct-18 15:03 37.643628 -120.876129 255 20866ft 369kts
01-Oct-18 15:04 37.628078 -121.001677 254 18713ft 360kts
01-Oct-18 15:05 37.611801 -121.122029 255 16718ft 336kts
01-Oct-18 15:06 37.596411 -121.236457 256 14824ft 338kts
01-Oct-18 15:07 37.582362 -121.352308 258 12869ft 334kts
01-Oct-18 15:08 37.569503 -121.464236 258 11458ft 309kts
01-Oct-18 15:09 37.557270 -121.570079 258 10526ft 291kts
01-Oct-18 15:10 37.543033 -121.659941 249 9663ft 268kts
01-Oct-18 15:11 37.521638 -121.747241 252 8575ft 260kts
01-Oct-18 15:12 37.501972 -121.829440 252 8019ft 230kts
01-Oct-18 15:13 37.484536 -121.900242 251 7676ft 220kts
01-Oct-18 15:14 37.466557 -121.967368 252 6227ft 200kts
01-Oct-18 15:15 37.471921 -122.026932 295 5926ft 173kts
01-Oct-18 15:16 37.493529 -122.078385 297 5032ft 168kts
01-Oct-18 15:17 37.514519 -122.127949 297 4128ft 162kts
01-Oct-18 15:18 37.534894 -122.176085 298 3267ft 157kts
01-Oct-18 15:19 37.554696 -122.222959 298 2427ft 152kts
01-Oct-18 15:20 37.573085 -122.266618 298 1661ft 142kts
01-Oct-18 15:21 37.591160 -122.309442 299 914ft 141kts
01-Oct-18 15:22 37.608537 -122.351147 299 196ft 142kts
01-Oct-18 15:23 37.619602 -122.377161 298 21ft 26kts
01-Oct-18 15:24 37.619712 -122.379251 221 21ft 0kts
01-Oct-18 15:25 37.619525 -122.379359 193 21ft 2kts
01-Oct-18 15:26 37.618041 -122.379520 175 21ft 8kts
01-Oct-18 15:27 37.614755 -122.380871 208 21ft 15kts
01-Oct-18 15:28 37.612702 -122.382746 259 21ft 3kts
01-Oct-18 15:29 37.612823 -122.383165 298 21ft 0kts
01-Oct-18 15:30 37.612823 -122.383165 298 21ft 0kts
01-Oct-18 15:31 37.612823 -122.383165 298 21ft 0kts

Navigation Log

Ident Type
Flight plan parsing failed, navigation log unavailable